createdAt,value
2017-10-05T00:01:34.008Z,21.13
2017-10-05T00:04:06.718Z,22.40
2017-10-05T00:06:39.339Z,21.33
2017-10-05T00:09:11.146Z,27.07
2017-10-05T00:11:43.159Z,24.93
2017-10-05T00:14:14.112Z,22.73
2017-10-05T00:16:50.477Z,24.67
2017-10-05T00:19:23.079Z,25.67
2017-10-05T00:21:54.023Z,29.60
2017-10-05T00:24:25.806Z,29.63
2017-10-05T00:26:57.229Z,21.20
2017-10-05T00:29:28.920Z,27.00
2017-10-05T00:32:00.408Z,22.23
2017-10-05T00:34:31.680Z,29.30
2017-10-05T00:37:04.069Z,27.80
2017-10-05T00:39:35.225Z,27.40
2017-10-05T00:42:06.891Z,26.73
2017-10-05T00:51:48.963Z,22.83
2017-10-05T00:54:21.439Z,41.07
2017-10-05T00:56:56.842Z,21.03
2017-10-05T00:59:27.592Z,29.53
2017-10-05T01:02:01.740Z,24.83
2017-10-05T01:04:33.298Z,20.20
2017-10-05T01:07:06.904Z,26.23
2017-10-05T01:09:37.298Z,30.97
2017-10-05T01:12:09.074Z,27.60
2017-10-05T01:14:48.252Z,27.70
2017-10-05T01:17:21.961Z,32.07
2017-10-05T01:19:55.061Z,26.67
2017-10-05T01:22:29.580Z,26.70
2017-10-05T01:27:38.829Z,31.13
2017-10-05T01:30:10.128Z,28.23
2017-10-05T01:32:46.030Z,29.87
2017-10-05T01:35:22.698Z,31.53
2017-10-05T01:38:00.089Z,27.60
2017-10-05T01:40:38.701Z,30.20
2017-10-05T01:43:13.126Z,25.07
2017-10-05T01:45:45.988Z,25.70
2017-10-05T01:48:33.177Z,21.80
2017-10-05T01:51:04.111Z,21.00
2017-10-05T01:53:36.727Z,18.37
2017-10-05T01:56:09.442Z,22.70
2017-10-05T01:58:49.311Z,21.33
2017-10-05T02:01:19.855Z,25.17
2017-10-05T02:03:57.199Z,23.37
2017-10-05T02:06:27.876Z,22.70
2017-10-05T02:08:59.003Z,23.20
2017-10-05T02:11:30.030Z,17.40
2017-10-05T02:14:04.143Z,19.30
2017-10-05T02:16:35.161Z,19.00
2017-10-05T02:19:06.888Z,22.37
2017-10-05T02:21:38.596Z,18.83
2017-10-05T02:24:11.402Z,17.40
2017-10-05T02:26:43.888Z,17.90
2017-10-05T02:29:14.685Z,12.37
2017-10-05T02:31:51.202Z,12.03
2017-10-05T02:34:23.875Z,12.33
2017-10-05T02:36:58.136Z,14.47
2017-10-05T02:40:01.603Z,10.20
2017-10-05T02:42:32.723Z,13.10
2017-10-05T02:45:06.425Z,12.70
2017-10-05T02:47:38.525Z,12.03
2017-10-05T02:50:11.797Z,9.03
2017-10-05T02:52:48.297Z,10.50
2017-10-05T02:55:27.806Z,8.60
2017-10-05T02:57:59.883Z,8.57
2017-10-05T03:00:33.664Z,10.73
2017-10-05T03:03:07.777Z,10.47
2017-10-05T03:05:41.952Z,12.57
2017-10-05T03:08:18.804Z,10.60
2017-10-05T03:10:51.227Z,8.43
2017-10-05T03:13:24.161Z,7.50
2017-10-05T03:16:03.956Z,10.70
2017-10-05T03:18:34.866Z,9.57
2017-10-05T03:21:06.705Z,8.03
2017-10-05T03:23:41.518Z,7.13
2017-10-05T03:27:18.917Z,8.87
2017-10-05T03:30:10.806Z,7.43
2017-10-05T03:32:42.846Z,8.60
2017-10-05T03:35:14.261Z,10.17
2017-10-05T03:37:50.933Z,7.73
2017-10-05T03:40:24.227Z,9.90
2017-10-05T03:42:59.992Z,10.20
2017-10-05T03:45:32.087Z,8.30
2017-10-05T03:48:09.289Z,6.80
2017-10-05T03:50:45.301Z,5.60
2017-10-05T03:53:18.486Z,6.80
2017-10-05T03:56:02.636Z,7.00
2017-10-05T04:01:15.670Z,4.50
2017-10-05T04:03:56.550Z,5.30
2017-10-05T04:06:41.196Z,4.50
2017-10-05T04:09:15.263Z,6.40
2017-10-05T04:11:47.818Z,3.40
2017-10-05T04:14:20.357Z,5.37
2017-10-05T04:17:02.051Z,6.37
2017-10-05T04:19:36.089Z,5.53
2017-10-05T04:22:08.901Z,6.77
2017-10-05T04:24:39.551Z,7.23
2017-10-05T04:27:18.182Z,4.33
2017-10-05T04:29:51.951Z,6.83
2017-10-05T04:32:22.688Z,7.03
2017-10-05T04:34:53.184Z,5.40
2017-10-05T04:37:23.737Z,6.13
2017-10-05T04:40:05.959Z,8.63
2017-10-05T04:42:37.978Z,6.90
2017-10-05T04:45:08.549Z,7.57
2017-10-05T04:47:44.959Z,6.83
2017-10-05T04:50:19.273Z,7.40
2017-10-05T04:52:50.056Z,8.77
2017-10-05T04:55:23.547Z,7.23
2017-10-05T04:57:54.581Z,7.60
2017-10-05T05:00:40.600Z,11.47
2017-10-05T05:03:15.653Z,10.63
2017-10-05T05:05:50.810Z,7.50
2017-10-05T05:08:24.604Z,13.63
2017-10-05T05:11:01.850Z,7.33
2017-10-05T05:13:32.497Z,8.20
2017-10-05T05:16:05.574Z,5.40
2017-10-05T05:18:36.007Z,7.00
2017-10-05T05:21:08.501Z,7.10
2017-10-05T05:23:39.351Z,8.80
2017-10-05T05:26:12.117Z,8.60
2017-10-05T05:28:42.583Z,7.33
2017-10-05T05:31:14.749Z,10.17
2017-10-05T05:33:46.632Z,7.40
2017-10-05T05:36:20.586Z,8.47
2017-10-05T05:38:55.154Z,7.97
2017-10-05T05:41:25.933Z,9.53
2017-10-05T05:43:58.840Z,12.30
2017-10-05T05:46:29.819Z,12.80
2017-10-05T05:49:06.495Z,10.97
2017-10-05T05:51:43.056Z,12.63
2017-10-05T05:54:16.090Z,9.53
2017-10-05T05:56:50.320Z,14.30
2017-10-05T05:59:22.472Z,11.50
2017-10-05T06:01:53.304Z,9.83
2017-10-05T06:04:25.788Z,11.33
2017-10-05T06:06:56.803Z,10.63
2017-10-05T06:09:28.797Z,9.83
2017-10-05T06:12:01.137Z,10.17
2017-10-05T06:14:33.015Z,11.20
2017-10-05T06:17:12.378Z,11.37
2017-10-05T06:19:48.392Z,11.53
2017-10-05T06:22:20.518Z,15.50
2017-10-05T06:24:51.681Z,12.33
2017-10-05T06:27:33.603Z,14.43
2017-10-05T06:30:05.146Z,14.30
2017-10-05T06:32:49.501Z,15.47
2017-10-05T06:35:36.248Z,15.53
2017-10-05T06:38:10.625Z,11.57
2017-10-05T06:40:53.152Z,13.43
2017-10-05T06:43:27.508Z,13.93
2017-10-05T06:46:01.824Z,14.47
2017-10-05T06:48:35.386Z,9.67
2017-10-05T06:51:11.363Z,13.37
2017-10-05T06:53:42.242Z,9.47
2017-10-05T06:56:14.670Z,10.90
2017-10-05T06:58:50.953Z,9.67
2017-10-05T07:01:30.832Z,10.37
2017-10-05T07:04:03.795Z,10.03
2017-10-05T07:06:40.223Z,11.93
2017-10-05T07:09:23.456Z,9.33
2017-10-05T07:11:55.586Z,11.30
2017-10-05T07:14:27.469Z,10.03
2017-10-05T07:17:02.833Z,8.00
2017-10-05T07:19:36.005Z,7.70
2017-10-05T07:22:09.117Z,9.43
2017-10-05T07:24:48.477Z,13.00
2017-10-05T07:27:25.826Z,6.17
2017-10-05T07:29:58.324Z,6.30
2017-10-05T07:32:46.845Z,6.00
2017-10-05T07:35:21.361Z,5.50
2017-10-05T07:37:55.362Z,7.40
2017-10-05T07:40:36.353Z,6.57
2017-10-05T07:43:17.712Z,4.73
2017-10-05T07:45:51.135Z,5.90
2017-10-05T07:48:27.119Z,7.13
2017-10-05T07:51:04.676Z,5.93
2017-10-05T07:53:37.507Z,5.57
2017-10-05T07:56:15.889Z,6.70
2017-10-05T07:58:49.995Z,5.53
2017-10-05T08:01:23.996Z,5.00
2017-10-05T08:04:01.698Z,5.43
2017-10-05T08:06:34.286Z,3.60
2017-10-05T08:09:06.734Z,5.00
2017-10-05T08:11:48.536Z,3.77
2017-10-05T08:14:21.558Z,3.77
2017-10-05T08:16:53.711Z,3.60
2017-10-05T08:19:27.181Z,5.30
2017-10-05T08:22:00.132Z,3.57
2017-10-05T08:25:04.181Z,3.30
2017-10-05T08:27:38.255Z,3.80
2017-10-05T08:33:09.828Z,6.83
2017-10-05T08:35:44.429Z,3.27
2017-10-05T08:38:16.572Z,5.63
2017-10-05T08:40:49.534Z,2.97
2017-10-05T08:43:31.740Z,3.73
2017-10-05T08:46:04.297Z,3.20
2017-10-05T08:48:39.166Z,6.13
2017-10-05T08:51:19.041Z,3.17
2017-10-05T08:53:50.960Z,5.17
2017-10-05T09:02:20.945Z,2.53
2017-10-05T09:04:52.665Z,3.90
2017-10-05T09:07:24.705Z,2.97
2017-10-05T09:10:00.655Z,5.73
2017-10-05T09:12:33.540Z,7.83
2017-10-05T09:15:13.395Z,2.00
2017-10-05T09:17:47.885Z,2.73
2017-10-05T09:20:19.209Z,1.80
2017-10-05T09:22:54.210Z,5.93
2017-10-05T09:25:25.879Z,2.30
2017-10-05T09:28:03.579Z,1.70
2017-10-05T09:30:36.374Z,4.73
2017-10-05T09:33:09.145Z,5.10
2017-10-05T09:35:40.728Z,4.33
2017-10-05T09:38:12.298Z,2.13
2017-10-05T09:40:43.624Z,3.10
2017-10-05T09:43:15.022Z,3.03
2017-10-05T09:45:47.269Z,4.50
2017-10-05T09:48:18.034Z,2.57
2017-10-05T09:50:51.165Z,9.47
2017-10-05T09:53:23.400Z,3.13
2017-10-05T09:55:56.177Z,3.70
2017-10-05T09:58:27.710Z,3.47
2017-10-05T10:01:00.497Z,8.03
2017-10-05T10:03:31.100Z,6.80
2017-10-05T10:06:04.012Z,6.63
2017-10-05T10:08:36.203Z,7.50
2017-10-05T10:11:08.478Z,7.10
2017-10-05T10:13:40.818Z,5.30
2017-10-05T10:16:11.367Z,9.63
2017-10-05T10:18:45.028Z,9.83
2017-10-05T10:21:16.580Z,13.93
2017-10-05T10:23:51.030Z,7.10
2017-10-05T10:26:23.807Z,7.77
2017-10-05T10:28:56.652Z,6.87
2017-10-05T10:31:30.644Z,11.20
2017-10-05T10:34:01.957Z,6.37
2017-10-05T10:36:34.867Z,6.73
2017-10-05T10:39:06.913Z,5.43
2017-10-05T10:41:39.160Z,4.87
2017-10-05T10:44:09.757Z,2.93
2017-10-05T10:46:47.979Z,4.93
2017-10-05T10:49:22.133Z,7.13
2017-10-05T10:51:54.370Z,5.33
2017-10-05T10:54:25.085Z,7.37
2017-10-05T10:57:01.618Z,7.10
2017-10-05T10:59:35.393Z,3.77
2017-10-05T11:02:13.141Z,5.33
2017-10-05T11:04:45.558Z,2.30
2017-10-05T11:07:27.334Z,4.60
2017-10-05T11:13:43.961Z,3.47
2017-10-05T11:16:19.373Z,6.63
2017-10-05T11:18:50.514Z,2.87
2017-10-05T11:21:25.300Z,5.50
2017-10-05T11:23:58.329Z,3.57
2017-10-05T11:26:30.668Z,2.50
2017-10-05T11:36:02.585Z,4.57
2017-10-05T11:38:33.671Z,8.97
2017-10-05T11:41:09.892Z,3.27
2017-10-05T11:43:45.806Z,4.00
2017-10-05T11:46:17.478Z,2.40
2017-10-05T11:48:48.337Z,4.90
2017-10-05T11:51:21.936Z,4.40
2017-10-05T11:53:53.812Z,10.53
2017-10-05T11:56:25.387Z,12.83
2017-10-05T11:58:57.865Z,6.60
2017-10-05T12:01:30.128Z,6.60
2017-10-05T12:04:09.246Z,5.50
2017-10-05T12:06:40.650Z,4.80
2017-10-05T12:09:16.407Z,6.57
2017-10-05T12:11:47.045Z,12.23
2017-10-05T12:14:21.076Z,4.13
2017-10-05T12:16:53.285Z,3.57
2017-10-05T12:19:29.108Z,2.07
2017-10-05T12:21:59.966Z,8.93
2017-10-05T12:24:32.714Z,6.17
2017-10-05T12:27:04.599Z,2.80
2017-10-05T12:32:22.629Z,1.70
2017-10-05T12:34:54.367Z,3.33
2017-10-05T12:37:26.025Z,2.50
2017-10-05T12:39:57.333Z,2.43
2017-10-05T12:42:29.746Z,3.43
2017-10-05T12:45:00.384Z,4.80
2017-10-05T12:47:31.556Z,5.20
2017-10-05T12:50:03.167Z,7.70
2017-10-05T12:52:37.996Z,4.60
2017-10-05T12:55:12.714Z,5.47
2017-10-05T12:57:58.964Z,7.23
2017-10-05T13:00:31.216Z,9.30
2017-10-05T13:03:06.554Z,2.60
2017-10-05T13:05:41.047Z,9.57
2017-10-05T13:08:16.460Z,6.50
2017-10-05T13:10:50.463Z,5.67
2017-10-05T13:13:27.331Z,3.73
2017-10-05T13:15:58.792Z,6.87
2017-10-05T13:18:30.516Z,5.40
2017-10-05T13:21:04.280Z,2.40
2017-10-05T13:23:37.658Z,5.57
2017-10-05T13:26:09.915Z,3.07
2017-10-05T13:28:41.495Z,3.57
2017-10-05T13:31:21.138Z,4.53
2017-10-05T13:33:51.845Z,2.93
2017-10-05T13:36:26.262Z,4.83
2017-10-05T13:39:00.055Z,7.60
2017-10-05T13:41:33.057Z,3.27
2017-10-05T13:44:03.405Z,8.00
2017-10-05T13:46:37.270Z,13.37
2017-10-05T13:49:08.434Z,10.00
2017-10-05T13:51:43.577Z,9.57
2017-10-05T13:54:14.821Z,5.10
2017-10-05T13:56:46.382Z,6.47
2017-10-05T13:59:25.105Z,8.00
2017-10-05T14:01:55.890Z,4.43
2017-10-05T14:04:29.304Z,8.77
2017-10-05T14:07:02.628Z,9.07
2017-10-05T14:09:34.252Z,3.13
2017-10-05T14:12:04.787Z,7.93
2017-10-05T14:14:42.033Z,5.10
2017-10-05T14:17:14.341Z,8.70
2017-10-05T14:19:47.231Z,3.30
2017-10-05T14:22:24.529Z,3.80
2017-10-05T14:24:58.397Z,4.40
2017-10-05T14:27:32.354Z,11.47
2017-10-05T14:30:06.294Z,3.17
2017-10-05T14:32:37.687Z,6.57
2017-10-05T14:35:18.666Z,8.57
2017-10-05T14:37:54.673Z,5.13
2017-10-05T14:40:27.288Z,8.53
2017-10-05T14:43:01.347Z,6.40
2017-10-05T14:45:31.941Z,3.57
2017-10-05T14:48:05.442Z,4.23
2017-10-05T14:50:35.978Z,25.93
2017-10-05T14:53:07.180Z,7.17
2017-10-05T14:55:39.075Z,3.13
2017-10-05T14:58:12.038Z,12.53
2017-10-05T15:00:42.965Z,4.93
2017-10-05T15:03:16.298Z,6.13
2017-10-05T15:05:49.136Z,5.50
2017-10-05T15:08:21.897Z,6.80
2017-10-05T15:10:53.612Z,5.73
2017-10-05T15:13:25.799Z,6.23
2017-10-05T15:15:56.444Z,9.23
2017-10-05T15:21:04.745Z,6.00
2017-10-05T15:23:36.867Z,10.43
2017-10-05T15:26:10.940Z,6.80
2017-10-05T15:28:43.301Z,7.53
2017-10-05T15:31:17.202Z,6.63
2017-10-05T15:33:47.928Z,7.77
2017-10-05T15:36:57.762Z,5.20
2017-10-05T15:39:35.872Z,10.60
2017-10-05T15:42:09.654Z,13.27
2017-10-05T15:44:42.605Z,5.47
2017-10-05T15:47:15.856Z,5.40
2017-10-05T15:49:47.654Z,8.83
2017-10-05T15:52:20.698Z,6.10
2017-10-05T15:54:52.057Z,11.07
2017-10-05T15:57:37.032Z,9.00
2017-10-05T16:00:08.501Z,8.50
2017-10-05T16:02:41.775Z,14.13
2017-10-05T16:05:14.398Z,10.40
2017-10-05T16:07:45.368Z,7.23
2017-10-05T16:10:16.946Z,5.83
2017-10-05T16:12:49.234Z,18.10
2017-10-05T16:15:23.091Z,10.47
2017-10-05T16:20:36.820Z,8.73
2017-10-05T16:23:10.471Z,7.10
2017-10-05T16:25:41.881Z,7.90
2017-10-05T16:28:14.307Z,8.93
2017-10-05T16:30:48.960Z,6.70
2017-10-05T16:33:23.531Z,8.83
2017-10-05T16:35:56.690Z,6.80
2017-10-05T16:38:27.338Z,12.97
2017-10-05T16:40:58.660Z,14.60
2017-10-05T16:43:29.981Z,4.77
2017-10-05T16:46:03.936Z,8.60
2017-10-05T16:48:40.488Z,8.90
2017-10-05T16:51:11.473Z,7.60
2017-10-05T16:53:42.123Z,10.33
2017-10-05T16:56:15.936Z,13.10
2017-10-05T16:58:49.306Z,9.60
2017-10-05T17:01:20.001Z,10.93
2017-10-05T17:03:53.683Z,9.53
2017-10-05T17:06:29.731Z,18.07
2017-10-05T17:09:02.364Z,9.67
2017-10-05T17:11:34.633Z,15.57
2017-10-05T17:14:08.292Z,11.30
2017-10-05T17:16:39.963Z,11.00
2017-10-05T17:19:13.454Z,24.57
2017-10-05T17:21:44.104Z,13.40
2017-10-05T17:24:17.190Z,8.83
2017-10-05T17:26:49.048Z,12.93
2017-10-05T17:29:21.978Z,9.13
2017-10-05T17:31:53.435Z,11.33
2017-10-05T17:34:27.330Z,13.87
2017-10-05T17:36:58.288Z,13.93
2017-10-05T17:39:32.186Z,11.30
2017-10-05T17:42:02.899Z,10.63
2017-10-05T17:44:34.346Z,9.27
2017-10-05T17:47:11.316Z,12.83
2017-10-05T17:49:42.607Z,18.10
2017-10-05T17:52:16.913Z,12.20
2017-10-05T17:54:52.259Z,6.23
2017-10-05T17:57:23.743Z,8.50
2017-10-05T17:59:58.362Z,4.90
2017-10-05T18:02:29.675Z,11.43
2017-10-05T18:05:02.248Z,7.00
2017-10-05T18:07:32.859Z,11.30
2017-10-05T18:10:05.415Z,11.03
2017-10-05T18:12:36.226Z,10.07
2017-10-05T18:15:14.756Z,10.67
2017-10-05T18:17:47.792Z,11.90
2017-10-05T18:20:20.279Z,12.20
2017-10-05T18:22:53.358Z,9.03
2017-10-05T18:25:25.566Z,8.60
2017-10-05T18:30:36.415Z,11.70
2017-10-05T18:33:09.904Z,8.70
2017-10-05T18:35:42.694Z,18.87
2017-10-05T18:38:15.420Z,16.03
2017-10-05T18:40:46.813Z,7.43
2017-10-05T18:43:20.014Z,18.67
2017-10-05T18:45:51.476Z,14.10
2017-10-05T18:48:25.251Z,12.60
2017-10-05T18:50:59.823Z,7.20
2017-10-05T18:53:31.603Z,8.10
2017-10-05T18:56:02.453Z,9.97
2017-10-05T18:58:34.530Z,12.90
2017-10-05T19:01:07.830Z,12.00
2017-10-05T19:03:44.531Z,13.60
2017-10-05T19:06:15.700Z,11.50
2017-10-05T19:08:49.330Z,10.70
2017-10-05T19:11:21.122Z,14.43
2017-10-05T19:13:53.121Z,10.53
2017-10-05T19:16:25.535Z,13.30
2017-10-05T19:18:59.332Z,14.20
2017-10-05T19:21:30.281Z,11.00
2017-10-05T19:24:02.773Z,15.90
2017-10-05T19:26:34.392Z,20.83
2017-10-05T19:29:09.154Z,21.93
2017-10-05T19:31:39.913Z,11.30
2017-10-05T19:34:11.035Z,12.27
2017-10-05T19:36:43.914Z,11.47
2017-10-05T19:39:15.083Z,11.53
2017-10-05T19:41:46.756Z,13.33
2017-10-05T19:44:19.369Z,12.33
2017-10-05T19:46:51.059Z,10.40
2017-10-05T19:49:23.042Z,12.73
2017-10-05T19:51:54.510Z,9.00
2017-10-05T19:54:26.556Z,11.10
2017-10-05T19:56:59.300Z,6.37
2017-10-05T19:59:31.637Z,11.93
2017-10-05T20:02:03.750Z,15.00
2017-10-05T20:04:35.302Z,8.43
2017-10-05T20:07:08.176Z,12.47
2017-10-05T20:09:39.307Z,12.63
2017-10-05T20:12:10.499Z,13.33
2017-10-05T20:14:41.765Z,8.73
2017-10-05T20:17:20.361Z,9.93
2017-10-05T20:19:54.284Z,10.47
2017-10-05T20:22:26.655Z,14.30
2017-10-05T20:24:58.095Z,10.10
2017-10-05T20:27:30.161Z,4.60
2017-10-05T20:30:00.885Z,14.20
2017-10-05T20:32:31.742Z,9.53
2017-10-05T20:35:03.630Z,8.33
2017-10-05T20:37:34.871Z,12.20
2017-10-05T20:40:07.329Z,13.00
2017-10-05T20:42:38.086Z,6.70
2017-10-05T20:45:08.735Z,8.27
2017-10-05T20:47:40.827Z,8.10
2017-10-05T20:50:16.369Z,12.57
2017-10-05T20:52:47.985Z,12.00
2017-10-05T20:55:19.483Z,12.37
2017-10-05T20:57:51.963Z,7.60
2017-10-05T21:00:23.877Z,12.07
2017-10-05T21:02:55.563Z,9.80
2017-10-05T21:05:26.483Z,9.43
2017-10-05T21:07:57.626Z,5.43
2017-10-05T21:11:03.482Z,13.23
2017-10-05T21:13:35.097Z,19.53
2017-10-05T21:16:08.523Z,7.57
2017-10-05T21:18:39.541Z,9.77
2017-10-05T21:21:10.920Z,16.03
2017-10-05T21:23:42.517Z,11.57
2017-10-05T21:26:15.980Z,7.77
2017-10-05T21:28:48.085Z,7.10
2017-10-05T21:31:20.108Z,6.53
2017-10-05T21:33:51.117Z,9.67
2017-10-05T21:36:25.657Z,6.13
2017-10-05T21:38:58.413Z,9.20
2017-10-05T21:41:29.099Z,11.90
2017-10-05T21:44:03.192Z,11.13
2017-10-05T21:46:36.731Z,6.00
2017-10-05T21:49:07.682Z,10.00
2017-10-05T21:54:28.453Z,10.83
2017-10-05T21:57:02.322Z,9.67
2017-10-05T21:59:42.951Z,12.63
2017-10-05T22:02:14.455Z,10.23
2017-10-05T22:04:45.619Z,5.60
2017-10-05T22:07:19.330Z,11.73
2017-10-05T22:09:50.563Z,13.23
2017-10-05T22:12:22.644Z,10.30
2017-10-05T22:14:53.739Z,7.10
2017-10-05T22:17:25.383Z,6.50
2017-10-05T22:20:00.432Z,17.77
2017-10-05T22:22:31.529Z,8.73
2017-10-05T22:25:02.576Z,7.20
2017-10-05T22:27:33.695Z,11.23
2017-10-05T22:30:05.804Z,7.70
2017-10-05T22:32:38.431Z,8.17
2017-10-05T22:35:10.917Z,7.07
2017-10-05T22:37:42.692Z,26.77
2017-10-05T22:40:15.573Z,11.20
2017-10-05T22:42:46.548Z,7.50
2017-10-05T22:45:20.486Z,9.00
2017-10-05T22:47:52.096Z,5.80
2017-10-05T22:50:23.065Z,12.47
2017-10-05T22:52:54.215Z,7.00
2017-10-05T22:55:25.925Z,5.67
2017-10-05T22:57:57.925Z,3.97
2017-10-05T23:00:43.217Z,15.90
2017-10-05T23:03:19.477Z,7.20
2017-10-05T23:05:50.911Z,7.30
2017-10-05T23:08:21.980Z,11.87
2017-10-05T23:10:54.158Z,8.90
2017-10-05T23:13:34.507Z,11.83
2017-10-05T23:16:17.315Z,19.77
2017-10-05T23:18:49.161Z,4.40
2017-10-05T23:21:20.982Z,11.70
2017-10-05T23:23:54.243Z,7.67
2017-10-05T23:26:25.355Z,5.53
2017-10-05T23:28:57.026Z,10.00
2017-10-05T23:31:37.527Z,9.53
2017-10-05T23:34:08.385Z,7.83
2017-10-05T23:37:09.467Z,7.43
2017-10-05T23:39:40.826Z,8.57
2017-10-05T23:42:14.302Z,7.60
2017-10-05T23:44:57.539Z,10.67
2017-10-05T23:47:31.469Z,12.67
2017-10-05T23:50:14.272Z,9.67
2017-10-05T23:52:45.608Z,13.20
2017-10-05T23:55:23.978Z,6.70
2017-10-05T23:57:59.786Z,8.20
